Barbaros Hayreddin P — TCWC7 — position and weather

sailwx.info

Track history (hours):
 
Tides and Currents Weather Stations Pressure Air Temp Water Temp Dewpoint Dewpoint Depression Visibility Wind Speed Wind Dir Waves Ship Positions

Barbaros Hayreddin P

Last reported at 2017-Sep-21 16:35 UTC. Time now 2017-Sep-25 01:11 UTC.
Position N 34°10' E 031°54'.

Length 85 m; draft 6.3 m.

Type: Other ship. MMSI: 271043480.

Date/timePositionNaut miles runAvg speedWind from/ knotsBaromVisibWave heightAir tempDewpointWater temp
2017-Sep-21 16:35N 34°10' E 031°54'1 4.3
2017-Sep-21 16:15N 34°12' E 031°54'1 4.3
2017-Sep-21 15:58N 34°13' E 031°54'3 4.3
2017-Sep-21 15:20N 34°16' E 031°54'1 4.3
2017-Sep-21 15:00N 34°17' E 031°54'2 4.3
2017-Sep-21 14:30N 34°19' E 031°54'2 4.3
2017-Sep-21 14:00N 34°22' E 031°54'2 4.3
2017-Sep-21 13:28N 34°24' E 031°54'2 4.3
2017-Sep-21 13:00N 34°26' E 031°54'2 4.3
2017-Sep-21 12:26N 34°28' E 031°54'2 4.3
2017-Sep-21 11:58N 34°30' E 031°54'2 4.1
2017-Sep-21 11:30N 34°32' E 031°53'2 4.1
2017-Sep-21 11:00N 34°34' E 031°53'3 4.1
2017-Sep-21 10:20N 34°37' E 031°53'1 4.2
2017-Sep-21 10:00N 34°39' E 031°53'3 4.2
2017-Sep-21 09:20N 34°41' E 031°53'1 4.2
2017-Sep-21 09:00N 34°43' E 031°53'2 4.1
2017-Sep-21 08:30N 34°45' E 031°53'2 4.1
2017-Sep-21 07:59N 34°47' E 031°53'2 3.9
2017-Sep-21 07:28N 34°49' E 031°53'2 3.8
2017-Sep-21 07:00N 34°51' E 031°53'2 4.1
2017-Sep-21 06:30N 34°53' E 031°53'2 4.1
2017-Sep-21 06:00N 34°55' E 031°53'2 3.8
2017-Sep-21 05:30N 34°57' E 031°53'2 3.8
2017-Sep-21 05:00N 34°59' E 031°53'2 3.8
2017-Sep-21 04:30N 35°00' E 031°53'2 4.3
2017-Sep-21 03:59N 35°03' E 031°53'2 4.5
2017-Sep-21 03:30N 35°05' E 031°53'2 4.5
2017-Sep-21 03:00N 35°07' E 031°52'2 4.5
2017-Sep-21 02:30N 35°09' E 031°52'2 4.5
2017-Sep-21 02:00N 35°12' E 031°52'2 4.5
2017-Sep-21 01:30N 35°14' E 031°52'2 4.5
2017-Sep-21 01:00N 35°16' E 031°52'2 4.5
2017-Sep-21 00:30N 35°18' E 031°52'2 4.6
2017-Sep-21 00:00N 35°21' E 031°52'2 4.6
2017-Sep-20 23:30N 35°23' E 031°52'2 4.6
2017-Sep-20 23:00N 35°25' E 031°52'2 4.6
2017-Sep-20 22:30N 35°28' E 031°52'2 4.6
2017-Sep-20 22:00N 35°30' E 031°52'2 4.4
2017-Sep-20 21:30N 35°32' E 031°52'2 4.4
2017-Sep-20 21:00N 35°34' E 031°51'2 4.3
2017-Sep-20 20:30N 35°37' E 031°51'2 4.3
2017-Sep-20 19:58N 35°39' E 031°51'2 4.3
2017-Sep-20 19:30N 35°41' E 031°51'2 4.3
2017-Sep-20 19:00N 35°43' E 031°51'  
2017-Sep-15 11:28N 34°23' E 031°58'28 1.6
2017-Sep-14 17:25N 33°54' E 031°55'10 4.3
2017-Sep-14 14:58N 34°05' E 031°55'2 4.1
2017-Sep-14 14:30N 34°07' E 031°55'2 4.1
2017-Sep-14 14:00N 34°09' E 031°55'2 4.2
2017-Sep-14 13:30N 34°11' E 031°55'2 4.2
2017-Sep-14 13:00N 34°13' E 031°55'2 4.2
2017-Sep-14 12:30N 34°15' E 031°55'2 4.2
2017-Sep-14 12:00N 34°17' E 031°55'2 4.2
2017-Sep-14 11:30N 34°19' E 031°55'2 4.3
2017-Sep-14 11:00N 34°21' E 031°55'3 4.3
2017-Sep-14 10:25N 34°24' E 031°55'3 4.3
2017-Sep-14 09:41N 34°27' E 031°55'13 4.3
2017-Sep-14 06:34N 34°41' E 031°54'1 4.2
2017-Sep-14 06:26N 34°41' E 031°54'2 3.9
2017-Sep-14 05:54N 34°42' E 031°57'13 4.4
2017-Sep-14 03:00N 34°30' E 032°00'2 4.6
2017-Sep-14 02:30N 34°27' E 032°01'4 4.6
2017-Sep-14 01:39N 34°23' E 032°01'3 4.6
2017-Sep-14 00:59N 34°20' E 032°01'2 4.6
2017-Sep-14 00:27N 34°18' E 032°01'9 4.6
2017-Sep-13 22:31N 34°09' E 032°01'0 4.7
2017-Sep-13 22:30N 34°09' E 032°01'2 4.6
2017-Sep-13 21:58N 34°06' E 032°01'2 4.6
2017-Sep-13 21:29N 34°04' E 032°01'5 4.6
2017-Sep-13 20:27N 33°59' E 032°01'2 4.6
2017-Sep-13 19:59N 33°57' E 032°01'3 4.7
2017-Sep-13 19:27N 33°55' E 032°01'2 4.8
2017-Sep-13 19:00N 33°53' E 032°01'2 4.3
2017-Sep-13 18:30N 33°50' E 032°01'2 3.8
2017-Sep-13 18:00N 33°49' E 032°03'2 3.6
2017-Sep-13 17:30N 33°50' E 032°05'2 3.6
2017-Sep-13 16:55N 33°52' E 032°05'2 4.5
2017-Sep-13 16:30N 33°54' E 032°05'2 4.5
2017-Sep-13 16:00N 33°56' E 032°05'2 4.4
2017-Sep-13 15:30N 33°59' E 032°05'2 4.4
2017-Sep-13 15:00N 34°01' E 032°05'3 4.4
2017-Sep-13 14:23N 34°04' E 032°05'37 4.4
2017-Sep-13 05:57N 34°41' E 032°04'6 2.4
2017-Sep-13 03:40N 34°36' E 032°01'1 4.6
2017-Sep-13 03:23N 34°35' E 032°01'2 4.6
2017-Sep-13 02:59N 34°33' E 032°01'3 4.6
2017-Sep-13 02:25N 34°30' E 032°01'2 4.6
2017-Sep-13 01:59N 34°28' E 032°01'2 4.6
2017-Sep-13 01:29N 34°26' E 032°01'3 4.6
2017-Sep-13 00:51N 34°23' E 032°01'3 4.6
2017-Sep-13 00:06N 34°20' E 032°01'0 4.6
2017-Sep-13 00:00N 34°19' E 032°01'2 4.6
2017-Sep-12 23:30N 34°17' E 032°01'2 4.6
2017-Sep-12 23:00N 34°15' E 032°01'2 4.6
2017-Sep-12 22:30N 34°12' E 032°01'2 4.6
2017-Sep-12 22:00N 34°10' E 032°01'2 4.6
2017-Sep-12 21:30N 34°08' E 032°01'5 4.6
2017-Sep-12 20:31N 34°03' E 032°01'1 4.6
2017-Sep-12 20:18N 34°02' E 032°01'5 4.6
2017-Sep-12 19:09N 33°57' E 032°01'1 4.6
2017-Sep-12 19:00N 33°56' E 032°01'3 4.7
2017-Sep-12 18:18N 33°53' E 032°01'1 4.6
2017-Sep-12 18:00N 33°51' E 032°01'2 3.7
2017-Sep-12 17:30N 33°50' E 032°02'2 3.5
2017-Sep-12 17:00N 33°50' E 032°04'2 3.5
2017-Sep-12 16:30N 33°52' E 032°05'20 4.5
2017-Sep-12 12:06N 34°11' E 032°05'0 4.6
2017-Sep-12 12:00N 34°12' E 032°05'3 4.6
2017-Sep-12 11:23N 34°15' E 032°05'2 4.6
2017-Sep-12 11:00N 34°17' E 032°05'3 4.6
2017-Sep-12 10:19N 34°20' E 032°05'1 4.6
2017-Sep-12 10:00N 34°21' E 032°05'2 4.6
2017-Sep-12 09:30N 34°23' E 032°05'2 4.6
2017-Sep-12 09:00N 34°26' E 032°05'2 4.6
2017-Sep-12 08:30N 34°28' E 032°05'2 4.6
2017-Sep-12 08:00N 34°30' E 032°05'3 4.6
2017-Sep-12 07:23N 34°33' E 032°05'2 4.5
2017-Sep-12 07:00N 34°35' E 032°05'2 4.3
2017-Sep-12 06:28N 34°37' E 032°04'2 4.5
2017-Sep-12 06:00N 34°39' E 032°04'2 4.1
2017-Sep-12 05:30N 34°41' E 032°04'2 4.1
2017-Sep-12 05:00N 34°41' E 032°01'2 4.3
2017-Sep-12 04:30N 34°39' E 032°01'2 4.3
2017-Sep-12 04:00N 34°37' E 032°01'2 4.7
2017-Sep-12 03:30N 34°35' E 032°01'2 4.6
2017-Sep-12 03:00N 34°33' E 032°01'2 4.6
2017-Sep-12 02:30N 34°30' E 032°01'2 4.6
2017-Sep-12 02:00N 34°28' E 032°01'2 4.6
2017-Sep-12 01:30N 34°26' E 032°01'2 4.6
2017-Sep-12 01:00N 34°23' E 032°01'2 4.6
2017-Sep-12 00:30N 34°21' E 032°01'2 4.6
2017-Sep-12 00:00N 34°19' E 032°01'2 4.6
2017-Sep-11 23:30N 34°16' E 032°01'2 4.6
2017-Sep-11 23:00N 34°14' E 032°01'2 4.6
2017-Sep-11 22:30N 34°12' E 032°01'2 4.6
2017-Sep-11 22:00N 34°10' E 032°01'2 4.6
2017-Sep-11 21:30N 34°07' E 032°01'2 4.6
2017-Sep-11 21:00N 34°05' E 032°01'2 4.6
2017-Sep-11 20:30N 34°03' E 032°01'2 4.6
2017-Sep-11 20:00N 34°00' E 032°01'2 4.6
2017-Sep-11 19:30N 33°58' E 032°01'2 4.6
2017-Sep-11 19:00N 33°56' E 032°01'2 4.6
2017-Sep-11 18:30N 33°53' E 032°01'3 4.4
2017-Sep-11 17:52N 33°51' E 032°01'1 4.0
2017-Sep-11 17:30N 33°50' E 032°03'  
Track history (hours):
 
Tides and Currents Weather Stations Pressure Air Temp Water Temp Dewpoint Dewpoint Depression Visibility Wind Speed Wind Dir Waves Ship Positions

Barbaros Hayreddin P

Last reported at 2017-Sep-21 16:35 UTC. Time now 2017-Sep-25 01:11 UTC.
Position N 34°10' E 031°54'.

Length 85 m; draft 6.3 m.

Type: Other ship. MMSI: 271043480.

Date/timePositionNaut miles runAvg speedWind from/ knotsBaromVisibWave heightAir tempDewpointWater temp
2017-Sep-21 16:35N 34°10' E 031°54'1 4.3
2017-Sep-21 16:15N 34°12' E 031°54'1 4.3
2017-Sep-21 15:58N 34°13' E 031°54'3 4.3
2017-Sep-21 15:20N 34°16' E 031°54'1 4.3
2017-Sep-21 15:00N 34°17' E 031°54'2 4.3
2017-Sep-21 14:30N 34°19' E 031°54'2 4.3
2017-Sep-21 14:00N 34°22' E 031°54'2 4.3
2017-Sep-21 13:28N 34°24' E 031°54'2 4.3
2017-Sep-21 13:00N 34°26' E 031°54'2 4.3
2017-Sep-21 12:26N 34°28' E 031°54'2 4.3
2017-Sep-21 11:58N 34°30' E 031°54'2 4.1
2017-Sep-21 11:30N 34°32' E 031°53'2 4.1
2017-Sep-21 11:00N 34°34' E 031°53'3 4.1
2017-Sep-21 10:20N 34°37' E 031°53'1 4.2
2017-Sep-21 10:00N 34°39' E 031°53'3 4.2
2017-Sep-21 09:20N 34°41' E 031°53'1 4.2
2017-Sep-21 09:00N 34°43' E 031°53'2 4.1
2017-Sep-21 08:30N 34°45' E 031°53'2 4.1
2017-Sep-21 07:59N 34°47' E 031°53'2 3.9
2017-Sep-21 07:28N 34°49' E 031°53'2 3.8
2017-Sep-21 07:00N 34°51' E 031°53'2 4.1
2017-Sep-21 06:30N 34°53' E 031°53'2 4.1
2017-Sep-21 06:00N 34°55' E 031°53'2 3.8
2017-Sep-21 05:30N 34°57' E 031°53'2 3.8
2017-Sep-21 05:00N 34°59' E 031°53'2 3.8
2017-Sep-21 04:30N 35°00' E 031°53'2 4.3
2017-Sep-21 03:59N 35°03' E 031°53'2 4.5
2017-Sep-21 03:30N 35°05' E 031°53'2 4.5
2017-Sep-21 03:00N 35°07' E 031°52'2 4.5
2017-Sep-21 02:30N 35°09' E 031°52'2 4.5
2017-Sep-21 02:00N 35°12' E 031°52'2 4.5
2017-Sep-21 01:30N 35°14' E 031°52'2 4.5
2017-Sep-21 01:00N 35°16' E 031°52'2 4.5
2017-Sep-21 00:30N 35°18' E 031°52'2 4.6
2017-Sep-21 00:00N 35°21' E 031°52'2 4.6
2017-Sep-20 23:30N 35°23' E 031°52'2 4.6
2017-Sep-20 23:00N 35°25' E 031°52'2 4.6
2017-Sep-20 22:30N 35°28' E 031°52'2 4.6
2017-Sep-20 22:00N 35°30' E 031°52'2 4.4
2017-Sep-20 21:30N 35°32' E 031°52'2 4.4
2017-Sep-20 21:00N 35°34' E 031°51'2 4.3
2017-Sep-20 20:30N 35°37' E 031°51'2 4.3
2017-Sep-20 19:58N 35°39' E 031°51'2 4.3
2017-Sep-20 19:30N 35°41' E 031°51'2 4.3
2017-Sep-20 19:00N 35°43' E 031°51'  
2017-Sep-15 11:28N 34°23' E 031°58'28 1.6
2017-Sep-14 17:25N 33°54' E 031°55'10 4.3
2017-Sep-14 14:58N 34°05' E 031°55'2 4.1
2017-Sep-14 14:30N 34°07' E 031°55'2 4.1
2017-Sep-14 14:00N 34°09' E 031°55'2 4.2
2017-Sep-14 13:30N 34°11' E 031°55'2 4.2
2017-Sep-14 13:00N 34°13' E 031°55'2 4.2
2017-Sep-14 12:30N 34°15' E 031°55'2 4.2
2017-Sep-14 12:00N 34°17' E 031°55'2 4.2
2017-Sep-14 11:30N 34°19' E 031°55'2 4.3
2017-Sep-14 11:00N 34°21' E 031°55'3 4.3
2017-Sep-14 10:25N 34°24' E 031°55'3 4.3
2017-Sep-14 09:41N 34°27' E 031°55'13 4.3
2017-Sep-14 06:34N 34°41' E 031°54'1 4.2
2017-Sep-14 06:26N 34°41' E 031°54'2 3.9
2017-Sep-14 05:54N 34°42' E 031°57'13 4.4
2017-Sep-14 03:00N 34°30' E 032°00'2 4.6
2017-Sep-14 02:30N 34°27' E 032°01'4 4.6
2017-Sep-14 01:39N 34°23' E 032°01'3 4.6
2017-Sep-14 00:59N 34°20' E 032°01'2 4.6
2017-Sep-14 00:27N 34°18' E 032°01'9 4.6
2017-Sep-13 22:31N 34°09' E 032°01'0 4.7
2017-Sep-13 22:30N 34°09' E 032°01'2 4.6
2017-Sep-13 21:58N 34°06' E 032°01'2 4.6
2017-Sep-13 21:29N 34°04' E 032°01'5 4.6
2017-Sep-13 20:27N 33°59' E 032°01'2 4.6
2017-Sep-13 19:59N 33°57' E 032°01'3 4.7
2017-Sep-13 19:27N 33°55' E 032°01'2 4.8
2017-Sep-13 19:00N 33°53' E 032°01'2 4.3
2017-Sep-13 18:30N 33°50' E 032°01'2 3.8
2017-Sep-13 18:00N 33°49' E 032°03'2 3.6
2017-Sep-13 17:30N 33°50' E 032°05'2 3.6
2017-Sep-13 16:55N 33°52' E 032°05'2 4.5
2017-Sep-13 16:30N 33°54' E 032°05'2 4.5
2017-Sep-13 16:00N 33°56' E 032°05'2 4.4
2017-Sep-13 15:30N 33°59' E 032°05'2 4.4
2017-Sep-13 15:00N 34°01' E 032°05'3 4.4
2017-Sep-13 14:23N 34°04' E 032°05'37 4.4
2017-Sep-13 05:57N 34°41' E 032°04'6 2.4
2017-Sep-13 03:40N 34°36' E 032°01'1 4.6
2017-Sep-13 03:23N 34°35' E 032°01'2 4.6
2017-Sep-13 02:59N 34°33' E 032°01'3 4.6
2017-Sep-13 02:25N 34°30' E 032°01'2 4.6
2017-Sep-13 01:59N 34°28' E 032°01'2 4.6
2017-Sep-13 01:29N 34°26' E 032°01'3 4.6
2017-Sep-13 00:51N 34°23' E 032°01'3 4.6
2017-Sep-13 00:06N 34°20' E 032°01'0 4.6
2017-Sep-13 00:00N 34°19' E 032°01'2 4.6
2017-Sep-12 23:30N 34°17' E 032°01'2 4.6
2017-Sep-12 23:00N 34°15' E 032°01'2 4.6
2017-Sep-12 22:30N 34°12' E 032°01'2 4.6
2017-Sep-12 22:00N 34°10' E 032°01'2 4.6
2017-Sep-12 21:30N 34°08' E 032°01'5 4.6
2017-Sep-12 20:31N 34°03' E 032°01'1 4.6
2017-Sep-12 20:18N 34°02' E 032°01'5 4.6
2017-Sep-12 19:09N 33°57' E 032°01'1 4.6
2017-Sep-12 19:00N 33°56' E 032°01'3 4.7
2017-Sep-12 18:18N 33°53' E 032°01'1 4.6
2017-Sep-12 18:00N 33°51' E 032°01'2 3.7
2017-Sep-12 17:30N 33°50' E 032°02'2 3.5
2017-Sep-12 17:00N 33°50' E 032°04'2 3.5
2017-Sep-12 16:30N 33°52' E 032°05'20 4.5
2017-Sep-12 12:06N 34°11' E 032°05'0 4.6
2017-Sep-12 12:00N 34°12' E 032°05'3 4.6
2017-Sep-12 11:23N 34°15' E 032°05'2 4.6
2017-Sep-12 11:00N 34°17' E 032°05'3 4.6
2017-Sep-12 10:19N 34°20' E 032°05'1 4.6
2017-Sep-12 10:00N 34°21' E 032°05'2 4.6
2017-Sep-12 09:30N 34°23' E 032°05'2 4.6
2017-Sep-12 09:00N 34°26' E 032°05'2 4.6
2017-Sep-12 08:30N 34°28' E 032°05'2 4.6
2017-Sep-12 08:00N 34°30' E 032°05'3 4.6
2017-Sep-12 07:23N 34°33' E 032°05'2 4.5
2017-Sep-12 07:00N 34°35' E 032°05'2 4.3
2017-Sep-12 06:28N 34°37' E 032°04'2 4.5
2017-Sep-12 06:00N 34°39' E 032°04'2 4.1
2017-Sep-12 05:30N 34°41' E 032°04'2 4.1
2017-Sep-12 05:00N 34°41' E 032°01'2 4.3
2017-Sep-12 04:30N 34°39' E 032°01'2 4.3
2017-Sep-12 04:00N 34°37' E 032°01'2 4.7
2017-Sep-12 03:30N 34°35' E 032°01'2 4.6
2017-Sep-12 03:00N 34°33' E 032°01'2 4.6
2017-Sep-12 02:30N 34°30' E 032°01'2 4.6
2017-Sep-12 02:00N 34°28' E 032°01'2 4.6
2017-Sep-12 01:30N 34°26' E 032°01'2 4.6
2017-Sep-12 01:00N 34°23' E 032°01'2 4.6
2017-Sep-12 00:30N 34°21' E 032°01'2 4.6
2017-Sep-12 00:00N 34°19' E 032°01'2 4.6
2017-Sep-11 23:30N 34°16' E 032°01'2 4.6
2017-Sep-11 23:00N 34°14' E 032°01'2 4.6
2017-Sep-11 22:30N 34°12' E 032°01'2 4.6
2017-Sep-11 22:00N 34°10' E 032°01'2 4.6
2017-Sep-11 21:30N 34°07' E 032°01'2 4.6
2017-Sep-11 21:00N 34°05' E 032°01'2 4.6
2017-Sep-11 20:30N 34°03' E 032°01'2 4.6
2017-Sep-11 20:00N 34°00' E 032°01'2 4.6
2017-Sep-11 19:30N 33°58' E 032°01'2 4.6
2017-Sep-11 19:00N 33°56' E 032°01'2 4.6
2017-Sep-11 18:30N 33°53' E 032°01'3 4.4
2017-Sep-11 17:52N 33°51' E 032°01'1 4.0
2017-Sep-11 17:30N 33°50' E 032°03'  

Dump ship's entire track history